Oxley, Arkansas
Current Conditions -  °F | °C
As of 6:55 AM on Tuesday 21 Oct 2014 (Local Time) from KFLP Reporting Station
Overcast Overcast  
Wind Chill: 10°   Ceiling: 100
Heat Index: 10°   Visibility: 0mi
Dew Point:   Wind: 0mph
Humidity: 82%   Direction: NA
Pressure: 30.11"   Gusts: NA
Location:  35.8223°N, 92.5849°W
Report Text: KFLP 211155Z AUTO 00000KT M1/4SM OVC001 10/07 A3011 RMK AO1 10130 20090 52010
Loading
Personal Weather Stations






























Interactive Weather Map
Tropical Storm Tracking
New forecast layout! Learn more

10-Day Weather Forecast

Advertisements
Track Severe Weather on mobile